sensor_id;sensor_type;location;lat;lon;timestamp;P1;durP1;ratioP1;P2;durP2;ratioP2
53644;SDS011;39547;45.554;12.068;2024-02-15T00:04:37;79.97;;;44.80;;
53644;SDS011;39547;45.554;12.068;2024-02-15T00:10:38;90.35;;;44.03;;
53644;SDS011;39547;45.554;12.068;2024-02-15T00:16:39;74.55;;;43.67;;
53644;SDS011;39547;45.554;12.068;2024-02-15T00:22:41;74.68;;;45.35;;
53644;SDS011;39547;45.554;12.068;2024-02-15T00:28:43;147.13;;;50.95;;
53644;SDS011;39547;45.554;12.068;2024-02-15T00:34:45;94.75;;;47.13;;
53644;SDS011;39547;45.554;12.068;2024-02-15T00:40:48;118.20;;;50.33;;
53644;SDS011;39547;45.554;12.068;2024-02-15T00:46:49;92.63;;;49.40;;
53644;SDS011;39547;45.554;12.068;2024-02-15T00:52:52;117.68;;;51.22;;
53644;SDS011;39547;45.554;12.068;2024-02-15T00:58:53;93.40;;;49.47;;
53644;SDS011;39547;45.554;12.068;2024-02-15T01:04:55;87.43;;;51.05;;
53644;SDS011;39547;45.554;12.068;2024-02-15T01:10:57;108.55;;;53.13;;
53644;SDS011;39547;45.554;12.068;2024-02-15T01:17:00;88.43;;;49.90;;
53644;SDS011;39547;45.554;12.068;2024-02-15T01:23:02;121.95;;;52.25;;
53644;SDS011;39547;45.554;12.068;2024-02-15T01:29:03;115.35;;;50.92;;
53644;SDS011;39547;45.554;12.068;2024-02-15T01:35:05;123.65;;;56.15;;
53644;SDS011;39547;45.554;12.068;2024-02-15T01:41:08;90.07;;;50.08;;
53644;SDS011;39547;45.554;12.068;2024-02-15T01:47:10;100.65;;;51.50;;
53644;SDS011;39547;45.554;12.068;2024-02-15T01:53:12;84.20;;;47.97;;
53644;SDS011;39547;45.554;12.068;2024-02-15T01:59:16;103.10;;;50.13;;
53644;SDS011;39547;45.554;12.068;2024-02-15T02:05:20;80.25;;;46.40;;
53644;SDS011;39547;45.554;12.068;2024-02-15T02:11:22;83.25;;;45.80;;
53644;SDS011;39547;45.554;12.068;2024-02-15T02:17:25;78.05;;;47.63;;
53644;SDS011;39547;45.554;12.068;2024-02-15T02:23:26;85.38;;;48.20;;
53644;SDS011;39547;45.554;12.068;2024-02-15T02:29:31;85.85;;;48.85;;
53644;SDS011;39547;45.554;12.068;2024-02-15T02:35:32;98.40;;;49.47;;
53644;SDS011;39547;45.554;12.068;2024-02-15T02:41:34;99.35;;;49.22;;
53644;SDS011;39547;45.554;12.068;2024-02-15T02:47:35;111.28;;;51.92;;
53644;SDS011;39547;45.554;12.068;2024-02-15T02:53:37;93.43;;;48.72;;
53644;SDS011;39547;45.554;12.068;2024-02-15T02:59:38;88.53;;;48.85;;
53644;SDS011;39547;45.554;12.068;2024-02-15T03:05:40;78.07;;;45.88;;
53644;SDS011;39547;45.554;12.068;2024-02-15T03:11:42;73.97;;;44.83;;
53644;SDS011;39547;45.554;12.068;2024-02-15T03:17:44;70.68;;;44.97;;
53644;SDS011;39547;45.554;12.068;2024-02-15T03:23:46;79.38;;;47.60;;
53644;SDS011;39547;45.554;12.068;2024-02-15T03:29:48;85.25;;;46.75;;
53644;SDS011;39547;45.554;12.068;2024-02-15T03:35:50;78.88;;;46.97;;
53644;SDS011;39547;45.554;12.068;2024-02-15T03:41:58;75.70;;;45.90;;
53644;SDS011;39547;45.554;12.068;2024-02-15T03:48:00;71.95;;;42.95;;
53644;SDS011;39547;45.554;12.068;2024-02-15T03:54:02;66.25;;;42.10;;
53644;SDS011;39547;45.554;12.068;2024-02-15T04:00:05;64.35;;;41.15;;
53644;SDS011;39547;45.554;12.068;2024-02-15T04:06:10;62.20;;;40.00;;
53644;SDS011;39547;45.554;12.068;2024-02-15T04:12:12;63.30;;;40.28;;
53644;SDS011;39547;45.554;12.068;2024-02-15T04:18:14;62.22;;;40.22;;
53644;SDS011;39547;45.554;12.068;2024-02-15T04:24:17;60.75;;;39.88;;
53644;SDS011;39547;45.554;12.068;2024-02-15T04:30:18;84.47;;;45.08;;
53644;SDS011;39547;45.554;12.068;2024-02-15T04:36:21;78.15;;;41.67;;
53644;SDS011;39547;45.554;12.068;2024-02-15T04:42:27;70.05;;;39.88;;
53644;SDS011;39547;45.554;12.068;2024-02-15T04:48:29;112.28;;;40.28;;
53644;SDS011;39547;45.554;12.068;2024-02-15T04:54:31;68.65;;;38.90;;
53644;SDS011;39547;45.554;12.068;2024-02-15T05:00:33;83.40;;;39.22;;
53644;SDS011;39547;45.554;12.068;2024-02-15T05:06:35;67.82;;;37.42;;
53644;SDS011;39547;45.554;12.068;2024-02-15T05:12:37;62.33;;;37.38;;
53644;SDS011;39547;45.554;12.068;2024-02-15T05:18:40;58.03;;;36.33;;
53644;SDS011;39547;45.554;12.068;2024-02-15T05:24:42;55.17;;;36.17;;
53644;SDS011;39547;45.554;12.068;2024-02-15T05:30:43;78.95;;;37.13;;
53644;SDS011;39547;45.554;12.068;2024-02-15T05:36:45;59.67;;;36.75;;
53644;SDS011;39547;45.554;12.068;2024-02-15T05:42:54;58.47;;;35.60;;
53644;SDS011;39547;45.554;12.068;2024-02-15T05:48:56;55.97;;;36.00;;
53644;SDS011;39547;45.554;12.068;2024-02-15T05:54:58;57.70;;;35.00;;
53644;SDS011;39547;45.554;12.068;2024-02-15T06:01:01;61.40;;;36.50;;
53644;SDS011;39547;45.554;12.068;2024-02-15T06:07:05;62.05;;;35.15;;
53644;SDS011;39547;45.554;12.068;2024-02-15T06:19:11;56.75;;;36.78;;
53644;SDS011;39547;45.554;12.068;2024-02-15T06:25:15;52.45;;;35.08;;
53644;SDS011;39547;45.554;12.068;2024-02-15T06:31:27;52.45;;;34.85;;
53644;SDS011;39547;45.554;12.068;2024-02-15T06:37:46;73.50;;;37.65;;
53644;SDS011;39547;45.554;12.068;2024-02-15T06:44:13;70.57;;;34.20;;
53644;SDS011;39547;45.554;12.068;2024-02-15T06:50:15;61.50;;;36.65;;
53644;SDS011;39547;45.554;12.068;2024-02-15T06:56:18;50.63;;;33.70;;
53644;SDS011;39547;45.554;12.068;2024-02-15T07:02:21;63.65;;;35.03;;
53644;SDS011;39547;45.554;12.068;2024-02-15T07:08:24;62.80;;;37.67;;
53644;SDS011;39547;45.554;12.068;2024-02-15T07:14:26;55.58;;;35.17;;
53644;SDS011;39547;45.554;12.068;2024-02-15T07:20:31;63.45;;;37.50;;
53644;SDS011;39547;45.554;12.068;2024-02-15T07:26:33;72.15;;;36.97;;
53644;SDS011;39547;45.554;12.068;2024-02-15T07:32:38;73.95;;;39.30;;
53644;SDS011;39547;45.554;12.068;2024-02-15T07:38:45;60.83;;;38.25;;
53644;SDS011;39547;45.554;12.068;2024-02-15T07:44:49;57.85;;;38.40;;
53644;SDS011;39547;45.554;12.068;2024-02-15T07:50:51;70.47;;;37.78;;
53644;SDS011;39547;45.554;12.068;2024-02-15T07:56:52;82.88;;;43.30;;
53644;SDS011;39547;45.554;12.068;2024-02-15T08:02:54;94.10;;;43.75;;
53644;SDS011;39547;45.554;12.068;2024-02-15T08:08:56;69.32;;;40.70;;
53644;SDS011;39547;45.554;12.068;2024-02-15T08:14:58;96.47;;;41.33;;
53644;SDS011;39547;45.554;12.068;2024-02-15T08:20:59;115.13;;;40.95;;
53644;SDS011;39547;45.554;12.068;2024-02-15T08:27:01;62.38;;;40.13;;
53644;SDS011;39547;45.554;12.068;2024-02-15T08:33:05;70.05;;;41.63;;
53644;SDS011;39547;45.554;12.068;2024-02-15T08:39:07;61.00;;;39.67;;
53644;SDS011;39547;45.554;12.068;2024-02-15T08:45:12;66.47;;;37.10;;
53644;SDS011;39547;45.554;12.068;2024-02-15T08:51:14;62.53;;;37.97;;
53644;SDS011;39547;45.554;12.068;2024-02-15T08:57:17;81.68;;;38.38;;
53644;SDS011;39547;45.554;12.068;2024-02-15T09:03:19;80.65;;;39.58;;
53644;SDS011;39547;45.554;12.068;2024-02-15T09:09:21;80.32;;;41.45;;
53644;SDS011;39547;45.554;12.068;2024-02-15T09:15:23;64.60;;;39.92;;
53644;SDS011;39547;45.554;12.068;2024-02-15T09:21:25;73.07;;;41.13;;
53644;SDS011;39547;45.554;12.068;2024-02-15T09:27:29;90.90;;;46.83;;
53644;SDS011;39547;45.554;12.068;2024-02-15T09:33:30;88.38;;;44.13;;
53644;SDS011;39547;45.554;12.068;2024-02-15T09:39:33;77.57;;;43.65;;
53644;SDS011;39547;45.554;12.068;2024-02-15T09:45:36;77.95;;;44.47;;
53644;SDS011;39547;45.554;12.068;2024-02-15T09:51:39;77.65;;;43.60;;
53644;SDS011;39547;45.554;12.068;2024-02-15T10:03:48;92.93;;;49.22;;
53644;SDS011;39547;45.554;12.068;2024-02-15T10:09:54;94.25;;;48.38;;
53644;SDS011;39547;45.554;12.068;2024-02-15T10:15:55;86.07;;;46.50;;
53644;SDS011;39547;45.554;12.068;2024-02-15T10:22:04;77.82;;;44.67;;
53644;SDS011;39547;45.554;12.068;2024-02-15T10:28:10;80.43;;;46.92;;
53644;SDS011;39547;45.554;12.068;2024-02-15T10:34:13;85.97;;;46.85;;
53644;SDS011;39547;45.554;12.068;2024-02-15T10:40:19;80.30;;;45.10;;
53644;SDS011;39547;45.554;12.068;2024-02-15T10:46:21;94.82;;;50.78;;
53644;SDS011;39547;45.554;12.068;2024-02-15T10:52:27;95.10;;;49.78;;
53644;SDS011;39547;45.554;12.068;2024-02-15T10:58:50;97.40;;;50.22;;
53644;SDS011;39547;45.554;12.068;2024-02-15T11:05:26;100.50;;;50.47;;
53644;SDS011;39547;45.554;12.068;2024-02-15T11:11:35;96.60;;;49.90;;
53644;SDS011;39547;45.554;12.068;2024-02-15T11:23:40;96.43;;;49.08;;
53644;SDS011;39547;45.554;12.068;2024-02-15T11:48:38;94.32;;;50.30;;
53644;SDS011;39547;45.554;12.068;2024-02-15T11:54:42;96.35;;;51.30;;
53644;SDS011;39547;45.554;12.068;2024-02-15T12:00:44;105.28;;;54.92;;
53644;SDS011;39547;45.554;12.068;2024-02-15T12:07:04;91.50;;;51.15;;
53644;SDS011;39547;45.554;12.068;2024-02-15T12:13:24;102.22;;;53.30;;
53644;SDS011;39547;45.554;12.068;2024-02-15T12:19:45;91.45;;;50.10;;
53644;SDS011;39547;45.554;12.068;2024-02-15T12:25:52;93.18;;;51.47;;
53644;SDS011;39547;45.554;12.068;2024-02-15T12:31:54;85.05;;;46.80;;
53644;SDS011;39547;45.554;12.068;2024-02-15T12:44:01;73.63;;;44.22;;
53644;SDS011;39547;45.554;12.068;2024-02-15T12:50:14;73.05;;;42.50;;
53644;SDS011;39547;45.554;12.068;2024-02-15T12:56:20;75.68;;;42.55;;
53644;SDS011;39547;45.554;12.068;2024-02-15T13:02:24;65.78;;;39.25;;
53644;SDS011;39547;45.554;12.068;2024-02-15T13:08:28;69.68;;;41.38;;
53644;SDS011;39547;45.554;12.068;2024-02-15T13:14:54;67.50;;;42.17;;
53644;SDS011;39547;45.554;12.068;2024-02-15T13:20:56;65.85;;;40.67;;
53644;SDS011;39547;45.554;12.068;2024-02-15T13:26:57;66.60;;;40.45;;
53644;SDS011;39547;45.554;12.068;2024-02-15T13:33:00;70.40;;;42.55;;
53644;SDS011;39547;45.554;12.068;2024-02-15T13:39:02;75.45;;;43.40;;
53644;SDS011;39547;45.554;12.068;2024-02-15T13:45:06;71.97;;;43.03;;
53644;SDS011;39547;45.554;12.068;2024-02-15T13:57:11;70.97;;;43.28;;
53644;SDS011;39547;45.554;12.068;2024-02-15T14:09:46;73.72;;;46.17;;
53644;SDS011;39547;45.554;12.068;2024-02-15T14:15:48;73.68;;;44.35;;
53644;SDS011;39547;45.554;12.068;2024-02-15T14:21:49;73.68;;;45.22;;
53644;SDS011;39547;45.554;12.068;2024-02-15T14:27:55;70.45;;;43.03;;
53644;SDS011;39547;45.554;12.068;2024-02-15T14:33:57;72.75;;;43.17;;
53644;SDS011;39547;45.554;12.068;2024-02-15T14:40:00;70.53;;;44.10;;
53644;SDS011;39547;45.554;12.068;2024-02-15T14:46:02;69.85;;;43.78;;
53644;SDS011;39547;45.554;12.068;2024-02-15T14:52:06;68.07;;;43.13;;
53644;SDS011;39547;45.554;12.068;2024-02-15T14:58:08;68.60;;;43.45;;
53644;SDS011;39547;45.554;12.068;2024-02-15T15:04:10;68.13;;;42.67;;
53644;SDS011;39547;45.554;12.068;2024-02-15T15:10:12;74.15;;;47.85;;
53644;SDS011;39547;45.554;12.068;2024-02-15T15:16:32;70.55;;;43.08;;
53644;SDS011;39547;45.554;12.068;2024-02-15T15:22:34;69.78;;;44.05;;
53644;SDS011;39547;45.554;12.068;2024-02-15T15:28:36;65.75;;;41.97;;
53644;SDS011;39547;45.554;12.068;2024-02-15T15:34:40;62.25;;;39.53;;
53644;SDS011;39547;45.554;12.068;2024-02-15T15:40:41;65.32;;;40.42;;
53644;SDS011;39547;45.554;12.068;2024-02-15T15:46:43;63.33;;;39.08;;
53644;SDS011;39547;45.554;12.068;2024-02-15T15:52:45;63.03;;;38.17;;
53644;SDS011;39547;45.554;12.068;2024-02-15T15:58:47;74.32;;;42.65;;
53644;SDS011;39547;45.554;12.068;2024-02-15T16:04:49;70.60;;;40.55;;
53644;SDS011;39547;45.554;12.068;2024-02-15T16:10:51;72.03;;;42.85;;
53644;SDS011;39547;45.554;12.068;2024-02-15T16:16:54;74.40;;;41.88;;
53644;SDS011;39547;45.554;12.068;2024-02-15T16:22:56;81.53;;;43.35;;
53644;SDS011;39547;45.554;12.068;2024-02-15T16:28:58;77.15;;;41.88;;
53644;SDS011;39547;45.554;12.068;2024-02-15T16:34:59;76.93;;;43.45;;
53644;SDS011;39547;45.554;12.068;2024-02-15T16:41:01;83.80;;;45.35;;
53644;SDS011;39547;45.554;12.068;2024-02-15T16:47:04;81.57;;;43.75;;
53644;SDS011;39547;45.554;12.068;2024-02-15T16:53:06;86.10;;;44.80;;
53644;SDS011;39547;45.554;12.068;2024-02-15T17:05:12;90.22;;;47.35;;
53644;SDS011;39547;45.554;12.068;2024-02-15T17:11:14;92.72;;;48.20;;
53644;SDS011;39547;45.554;12.068;2024-02-15T17:17:16;92.28;;;48.40;;
53644;SDS011;39547;45.554;12.068;2024-02-15T17:23:18;96.28;;;49.60;;
53644;SDS011;39547;45.554;12.068;2024-02-15T17:29:20;99.20;;;51.13;;
53644;SDS011;39547;45.554;12.068;2024-02-15T17:35:22;104.15;;;53.15;;
53644;SDS011;39547;45.554;12.068;2024-02-15T17:41:24;102.18;;;52.45;;
53644;SDS011;39547;45.554;12.068;2024-02-15T17:47:26;95.90;;;49.53;;
53644;SDS011;39547;45.554;12.068;2024-02-15T17:53:27;99.82;;;50.35;;
53644;SDS011;39547;45.554;12.068;2024-02-15T17:59:29;97.93;;;49.70;;
53644;SDS011;39547;45.554;12.068;2024-02-15T18:05:31;96.38;;;50.38;;
53644;SDS011;39547;45.554;12.068;2024-02-15T18:11:34;97.35;;;49.35;;
53644;SDS011;39547;45.554;12.068;2024-02-15T18:17:35;97.93;;;50.67;;
53644;SDS011;39547;45.554;12.068;2024-02-15T18:23:37;101.13;;;50.83;;
53644;SDS011;39547;45.554;12.068;2024-02-15T18:29:41;97.13;;;49.53;;
53644;SDS011;39547;45.554;12.068;2024-02-15T18:35:44;101.65;;;50.42;;
53644;SDS011;39547;45.554;12.068;2024-02-15T18:41:47;97.35;;;49.88;;
53644;SDS011;39547;45.554;12.068;2024-02-15T18:47:50;100.75;;;50.55;;
53644;SDS011;39547;45.554;12.068;2024-02-15T18:53:52;91.65;;;48.67;;
53644;SDS011;39547;45.554;12.068;2024-02-15T18:59:54;95.22;;;51.20;;
53644;SDS011;39547;45.554;12.068;2024-02-15T19:05:57;99.97;;;49.35;;
53644;SDS011;39547;45.554;12.068;2024-02-15T19:11:59;94.65;;;48.08;;
53644;SDS011;39547;45.554;12.068;2024-02-15T19:18:00;96.65;;;48.83;;
53644;SDS011;39547;45.554;12.068;2024-02-15T19:24:02;91.55;;;46.67;;
53644;SDS011;39547;45.554;12.068;2024-02-15T19:30:04;90.38;;;46.35;;
53644;SDS011;39547;45.554;12.068;2024-02-15T19:36:07;83.85;;;44.97;;
53644;SDS011;39547;45.554;12.068;2024-02-15T19:42:09;107.07;;;48.53;;
53644;SDS011;39547;45.554;12.068;2024-02-15T19:48:11;85.00;;;48.00;;
53644;SDS011;39547;45.554;12.068;2024-02-15T19:54:13;88.78;;;47.28;;
53644;SDS011;39547;45.554;12.068;2024-02-15T20:00:15;89.70;;;48.10;;
53644;SDS011;39547;45.554;12.068;2024-02-15T20:06:19;91.55;;;48.83;;
53644;SDS011;39547;45.554;12.068;2024-02-15T20:12:24;110.45;;;48.83;;
53644;SDS011;39547;45.554;12.068;2024-02-15T20:18:26;83.40;;;47.15;;
53644;SDS011;39547;45.554;12.068;2024-02-15T20:24:27;91.45;;;46.95;;
53644;SDS011;39547;45.554;12.068;2024-02-15T20:30:29;96.85;;;48.28;;
53644;SDS011;39547;45.554;12.068;2024-02-15T20:36:31;76.90;;;44.00;;
53644;SDS011;39547;45.554;12.068;2024-02-15T20:42:34;80.15;;;44.17;;
53644;SDS011;39547;45.554;12.068;2024-02-15T20:48:38;77.35;;;43.80;;
53644;SDS011;39547;45.554;12.068;2024-02-15T20:54:40;72.18;;;44.22;;
53644;SDS011;39547;45.554;12.068;2024-02-15T21:00:41;73.43;;;44.10;;
53644;SDS011;39547;45.554;12.068;2024-02-15T21:06:43;77.22;;;43.15;;
53644;SDS011;39547;45.554;12.068;2024-02-15T21:12:45;76.40;;;44.55;;
53644;SDS011;39547;45.554;12.068;2024-02-15T21:18:48;66.22;;;41.17;;
53644;SDS011;39547;45.554;12.068;2024-02-15T21:24:53;133.75;;;50.45;;
53644;SDS011;39547;45.554;12.068;2024-02-15T21:30:55;117.18;;;48.05;;
53644;SDS011;39547;45.554;12.068;2024-02-15T21:36:56;93.80;;;48.00;;
53644;SDS011;39547;45.554;12.068;2024-02-15T21:42:58;83.97;;;47.10;;
53644;SDS011;39547;45.554;12.068;2024-02-15T21:48:59;91.20;;;46.55;;
53644;SDS011;39547;45.554;12.068;2024-02-15T21:55:01;82.32;;;45.85;;
53644;SDS011;39547;45.554;12.068;2024-02-15T22:01:03;86.60;;;48.70;;
53644;SDS011;39547;45.554;12.068;2024-02-15T22:07:05;96.47;;;50.53;;
53644;SDS011;39547;45.554;12.068;2024-02-15T22:13:08;79.97;;;47.22;;
53644;SDS011;39547;45.554;12.068;2024-02-15T22:19:10;85.18;;;48.28;;
53644;SDS011;39547;45.554;12.068;2024-02-15T22:25:12;80.70;;;47.72;;
53644;SDS011;39547;45.554;12.068;2024-02-15T22:31:15;99.95;;;49.33;;
53644;SDS011;39547;45.554;12.068;2024-02-15T22:37:18;84.13;;;48.33;;
53644;SDS011;39547;45.554;12.068;2024-02-15T22:43:19;81.20;;;47.50;;
53644;SDS011;39547;45.554;12.068;2024-02-15T22:49:23;90.47;;;47.22;;
53644;SDS011;39547;45.554;12.068;2024-02-15T22:55:24;100.28;;;46.95;;
53644;SDS011;39547;45.554;12.068;2024-02-15T23:01:26;85.03;;;46.83;;
53644;SDS011;39547;45.554;12.068;2024-02-15T23:07:28;73.72;;;44.85;;
53644;SDS011;39547;45.554;12.068;2024-02-15T23:13:30;68.63;;;41.88;;
53644;SDS011;39547;45.554;12.068;2024-02-15T23:19:31;67.53;;;41.13;;
53644;SDS011;39547;45.554;12.068;2024-02-15T23:25:33;74.10;;;43.97;;
53644;SDS011;39547;45.554;12.068;2024-02-15T23:31:35;130.15;;;44.60;;
53644;SDS011;39547;45.554;12.068;2024-02-15T23:37:37;145.98;;;46.65;;
53644;SDS011;39547;45.554;12.068;2024-02-15T23:43:57;94.82;;;43.20;;
53644;SDS011;39547;45.554;12.068;2024-02-15T23:49:58;105.18;;;43.67;;
53644;SDS011;39547;45.554;12.068;2024-02-15T23:55:59;138.13;;;44.83;;
